createdAt,value
2018-12-31T00:00:02.536Z,8.00
2018-12-31T00:02:06.841Z,8.00
2018-12-31T00:04:10.727Z,8.00
2018-12-31T00:06:14.588Z,8.10
2018-12-31T00:08:18.582Z,8.00
2018-12-31T00:10:22.449Z,8.10
2018-12-31T00:12:26.330Z,8.00
2018-12-31T00:14:30.242Z,8.00
2018-12-31T00:16:34.098Z,8.00
2018-12-31T00:18:38.013Z,8.00
2018-12-31T00:20:41.866Z,8.10
2018-12-31T00:22:45.758Z,8.10
2018-12-31T00:24:49.682Z,8.10
2018-12-31T00:26:53.583Z,8.10
2018-12-31T00:28:57.470Z,8.10
2018-12-31T00:31:01.356Z,8.10
2018-12-31T00:33:05.260Z,8.10
2018-12-31T00:35:09.143Z,8.10
2018-12-31T00:37:13.010Z,8.10
2018-12-31T00:39:16.923Z,8.10
2018-12-31T00:41:20.800Z,8.20
2018-12-31T00:43:24.656Z,8.10
2018-12-31T00:45:28.692Z,8.20
2018-12-31T00:47:32.535Z,8.20
2018-12-31T00:49:36.396Z,8.20
2018-12-31T00:51:40.441Z,8.20
2018-12-31T00:53:44.343Z,8.20
2018-12-31T00:55:48.190Z,8.20
2018-12-31T00:57:52.214Z,8.20
2018-12-31T00:59:56.068Z,8.20
2018-12-31T01:01:59.935Z,8.20
2018-12-31T01:04:03.831Z,8.20
2018-12-31T01:06:07.706Z,8.20
2018-12-31T01:08:11.594Z,8.20
2018-12-31T01:10:15.497Z,8.20
2018-12-31T01:12:19.363Z,8.30
2018-12-31T01:14:23.285Z,8.30
2018-12-31T01:16:27.293Z,8.30
2018-12-31T01:18:31.187Z,8.30
2018-12-31T01:20:35.024Z,8.30
2018-12-31T01:22:38.961Z,8.30
2018-12-31T01:24:42.818Z,8.30
2018-12-31T01:26:46.657Z,8.40
2018-12-31T01:28:50.607Z,8.30
2018-12-31T01:30:54.447Z,8.40
2018-12-31T01:32:58.310Z,8.40
2018-12-31T01:35:02.256Z,8.40
2018-12-31T01:37:06.105Z,8.40
2018-12-31T01:39:10.027Z,8.40
2018-12-31T01:41:14.006Z,8.40
2018-12-31T01:43:17.929Z,8.40
2018-12-31T01:45:21.850Z,8.40
2018-12-31T01:47:25.726Z,8.40
2018-12-31T01:49:29.648Z,8.40
2018-12-31T01:51:33.530Z,8.40
2018-12-31T01:53:37.394Z,8.50
2018-12-31T01:55:41.296Z,8.40
2018-12-31T01:57:45.222Z,8.50
2018-12-31T01:59:49.085Z,8.50
2018-12-31T02:01:53.039Z,8.50
2018-12-31T02:03:56.908Z,8.50
2018-12-31T02:06:00.813Z,8.50
2018-12-31T02:08:04.722Z,8.50
2018-12-31T02:10:08.622Z,8.50
2018-12-31T02:12:12.503Z,8.60
2018-12-31T02:14:16.387Z,8.50
2018-12-31T02:16:20.258Z,8.50
2018-12-31T02:18:24.119Z,8.50
2018-12-31T02:20:28.087Z,8.50
2018-12-31T02:22:31.933Z,8.60
2018-12-31T02:24:35.802Z,8.60
2018-12-31T02:26:39.707Z,8.60
2018-12-31T02:28:43.572Z,8.50
2018-12-31T02:30:47.698Z,8.50
2018-12-31T02:32:51.549Z,8.60
2018-12-31T02:34:55.437Z,8.60
2018-12-31T02:36:59.333Z,8.60
2018-12-31T02:39:03.203Z,8.60
2018-12-31T02:41:07.099Z,8.60
2018-12-31T02:43:11.026Z,8.60
2018-12-31T02:45:14.917Z,8.60
2018-12-31T02:47:18.816Z,8.60
2018-12-31T02:49:22.657Z,8.70
2018-12-31T02:51:26.551Z,8.60
2018-12-31T02:53:30.454Z,8.70
2018-12-31T02:55:34.318Z,8.70
2018-12-31T02:57:38.181Z,8.70
2018-12-31T02:59:42.082Z,8.70
2018-12-31T03:01:46.093Z,8.70
2018-12-31T03:03:49.983Z,8.70
2018-12-31T03:05:53.882Z,8.70
2018-12-31T03:07:57.781Z,8.70
2018-12-31T03:10:01.607Z,8.70
2018-12-31T03:12:05.494Z,8.80
2018-12-31T03:14:09.426Z,8.80
2018-12-31T03:16:13.308Z,8.80
2018-12-31T03:18:17.157Z,8.80
2018-12-31T03:20:21.018Z,8.80
2018-12-31T03:22:24.919Z,8.80
2018-12-31T03:24:28.786Z,8.80
2018-12-31T03:26:32.648Z,8.80
2018-12-31T03:28:36.585Z,8.80
2018-12-31T03:30:40.463Z,8.80
2018-12-31T03:32:44.365Z,8.80
2018-12-31T03:34:48.205Z,8.80
2018-12-31T03:36:52.136Z,8.80
2018-12-31T03:38:56.348Z,8.80
2018-12-31T03:41:00.472Z,8.80
2018-12-31T03:43:04.491Z,8.80
2018-12-31T03:45:08.649Z,8.80
2018-12-31T03:47:12.751Z,8.80
2018-12-31T03:49:16.677Z,8.80
2018-12-31T03:51:20.663Z,8.80
2018-12-31T03:53:24.688Z,8.80
2018-12-31T03:55:29.282Z,8.80
2018-12-31T03:57:33.321Z,8.80
2018-12-31T03:59:37.701Z,8.90
2018-12-31T04:01:41.737Z,8.80
2018-12-31T04:03:45.647Z,8.80
2018-12-31T04:05:49.721Z,8.80
2018-12-31T04:07:53.938Z,8.80
2018-12-31T04:09:58.309Z,8.80
2018-12-31T04:12:02.414Z,8.80
2018-12-31T04:14:06.439Z,8.80
2018-12-31T04:16:10.275Z,8.80
2018-12-31T04:18:14.180Z,8.80
2018-12-31T04:20:18.131Z,8.80
2018-12-31T04:22:22.006Z,8.80
2018-12-31T04:24:26.020Z,8.80
2018-12-31T04:26:29.893Z,8.80
2018-12-31T04:28:34.077Z,8.80
2018-12-31T04:30:38.143Z,8.80
2018-12-31T04:32:42.054Z,8.80
2018-12-31T04:34:46.073Z,8.80
2018-12-31T04:36:49.962Z,8.80
2018-12-31T04:38:53.814Z,8.80
2018-12-31T04:40:57.743Z,8.80
2018-12-31T04:43:01.626Z,8.80
2018-12-31T04:45:06.441Z,8.80
2018-12-31T04:47:10.358Z,8.80
2018-12-31T04:49:14.243Z,8.70
2018-12-31T04:51:18.260Z,8.70
2018-12-31T04:53:22.174Z,8.80
2018-12-31T04:55:26.069Z,8.80
2018-12-31T04:57:29.991Z,8.80
2018-12-31T04:59:33.879Z,8.70
2018-12-31T05:01:37.748Z,8.70
2018-12-31T05:03:41.652Z,8.70
2018-12-31T05:05:45.542Z,8.70
2018-12-31T05:07:49.406Z,8.70
2018-12-31T05:09:53.291Z,8.70
2018-12-31T05:11:57.229Z,8.70
2018-12-31T05:14:01.107Z,8.70
2018-12-31T05:16:05.027Z,8.70
2018-12-31T05:18:09.018Z,8.70
2018-12-31T05:20:13.228Z,8.70
2018-12-31T05:22:17.078Z,8.70
2018-12-31T05:24:20.934Z,8.70
2018-12-31T05:26:24.864Z,8.70
2018-12-31T05:28:28.765Z,8.70
2018-12-31T05:30:32.643Z,8.70
2018-12-31T05:32:36.529Z,8.70
2018-12-31T05:34:40.387Z,8.70
2018-12-31T05:36:44.294Z,8.70
2018-12-31T05:38:48.151Z,8.70
2018-12-31T05:40:52.014Z,8.70
2018-12-31T05:42:56.063Z,8.70
2018-12-31T05:44:59.995Z,8.70
2018-12-31T05:47:03.935Z,8.70
2018-12-31T05:49:07.825Z,8.70
2018-12-31T05:51:11.714Z,8.70
2018-12-31T05:53:15.580Z,8.70
2018-12-31T05:55:19.603Z,8.70
2018-12-31T05:57:23.482Z,8.80
2018-12-31T05:59:27.392Z,8.70
2018-12-31T06:01:31.318Z,8.80
2018-12-31T06:03:35.207Z,8.70
2018-12-31T06:05:39.125Z,8.70
2018-12-31T06:07:42.979Z,8.70
2018-12-31T06:09:46.834Z,8.70
2018-12-31T06:11:50.779Z,8.70
2018-12-31T06:13:54.628Z,8.70
2018-12-31T06:15:58.477Z,8.70
2018-12-31T06:18:02.398Z,8.80
2018-12-31T06:20:06.394Z,8.70
2018-12-31T06:22:10.357Z,8.70
2018-12-31T06:24:14.197Z,8.80
2018-12-31T06:26:18.066Z,8.70
2018-12-31T06:28:22.423Z,8.70
2018-12-31T06:30:26.588Z,8.70
2018-12-31T06:32:30.663Z,8.70
2018-12-31T06:34:35.065Z,8.70
2018-12-31T06:36:39.037Z,8.70
2018-12-31T06:38:43.091Z,8.70
2018-12-31T06:40:47.189Z,8.70
2018-12-31T06:42:51.293Z,8.70
2018-12-31T06:44:55.902Z,8.70
2018-12-31T06:46:59.924Z,8.70
2018-12-31T06:49:03.909Z,8.70
2018-12-31T06:51:08.024Z,8.70
2018-12-31T06:53:12.009Z,8.70
2018-12-31T06:55:15.909Z,8.70
2018-12-31T06:57:19.768Z,8.70
2018-12-31T06:59:23.700Z,8.70
2018-12-31T07:01:27.540Z,8.70
2018-12-31T07:03:31.482Z,8.70
2018-12-31T07:05:35.339Z,8.70
2018-12-31T07:07:39.186Z,8.70
2018-12-31T07:09:43.098Z,8.70
2018-12-31T07:11:46.962Z,8.70
2018-12-31T07:13:50.820Z,8.70
2018-12-31T07:15:54.710Z,8.70
2018-12-31T07:17:58.639Z,8.70
2018-12-31T07:20:02.761Z,8.60
2018-12-31T07:22:06.818Z,8.70
2018-12-31T07:24:10.868Z,8.60
2018-12-31T07:26:14.963Z,8.70
2018-12-31T07:28:19.244Z,8.70
2018-12-31T07:30:23.190Z,8.70
2018-12-31T07:32:27.295Z,8.70
2018-12-31T07:34:31.347Z,8.70
2018-12-31T07:36:35.486Z,8.70
2018-12-31T07:38:39.550Z,8.70
2018-12-31T07:40:43.499Z,8.70
2018-12-31T07:42:47.547Z,8.60
2018-12-31T07:44:51.549Z,8.70
2018-12-31T07:46:55.610Z,8.70
2018-12-31T07:48:59.467Z,8.70
2018-12-31T07:51:03.412Z,8.70
2018-12-31T07:53:07.249Z,8.70
2018-12-31T07:55:11.167Z,8.60
2018-12-31T07:57:15.213Z,8.70
2018-12-31T07:59:19.047Z,8.70
2018-12-31T08:01:22.995Z,8.70
2018-12-31T08:03:26.857Z,8.70
2018-12-31T08:05:30.705Z,8.70
2018-12-31T08:07:34.610Z,8.70
2018-12-31T08:09:38.494Z,8.70
2018-12-31T08:11:42.507Z,8.70
2018-12-31T08:13:46.372Z,8.80
2018-12-31T08:15:50.226Z,8.80
2018-12-31T08:17:54.138Z,8.80
2018-12-31T08:19:58.048Z,8.80
2018-12-31T08:22:01.920Z,8.80
2018-12-31T08:24:05.837Z,8.70
2018-12-31T08:26:09.714Z,8.80
2018-12-31T08:28:13.604Z,8.80
2018-12-31T08:30:18.889Z,8.80
2018-12-31T08:32:22.954Z,8.70
2018-12-31T08:34:26.929Z,8.80
2018-12-31T08:36:30.811Z,8.70
2018-12-31T08:38:34.679Z,8.80
2018-12-31T08:40:38.586Z,8.80
2018-12-31T08:42:42.427Z,8.80
2018-12-31T08:44:46.344Z,8.80
2018-12-31T08:46:50.263Z,8.80
2018-12-31T08:48:54.179Z,8.80
2018-12-31T08:50:58.078Z,8.90
2018-12-31T08:53:02.050Z,8.90
2018-12-31T08:55:06.244Z,8.90
2018-12-31T08:57:10.161Z,8.90
2018-12-31T08:59:14.107Z,8.90
2018-12-31T09:01:17.985Z,8.90
2018-12-31T09:03:21.869Z,8.90
2018-12-31T09:05:25.738Z,8.80
2018-12-31T09:07:29.612Z,8.80
2018-12-31T09:09:33.518Z,8.80
2018-12-31T09:11:37.405Z,8.90
2018-12-31T09:13:41.313Z,8.90
2018-12-31T09:15:45.506Z,8.90
2018-12-31T09:17:49.361Z,8.90
2018-12-31T09:19:53.211Z,8.90
2018-12-31T09:21:57.187Z,9.00
2018-12-31T09:24:01.078Z,8.90
2018-12-31T09:26:04.993Z,9.00
2018-12-31T09:28:09.383Z,9.00
2018-12-31T09:30:13.246Z,9.00
2018-12-31T09:32:17.117Z,9.00
2018-12-31T09:34:21.005Z,9.10
2018-12-31T09:36:24.882Z,9.10
2018-12-31T09:38:28.828Z,9.10
2018-12-31T09:40:32.772Z,9.10
2018-12-31T09:42:36.641Z,9.20
2018-12-31T09:44:41.351Z,9.10
2018-12-31T09:46:45.245Z,9.20
2018-12-31T09:48:50.334Z,9.20
2018-12-31T09:50:54.247Z,9.20
2018-12-31T09:52:58.081Z,9.20
2018-12-31T09:55:02.099Z,9.20
2018-12-31T09:57:05.963Z,9.20
2018-12-31T09:59:09.845Z,9.20
2018-12-31T10:01:13.801Z,9.20
2018-12-31T10:03:17.715Z,9.20
2018-12-31T10:05:21.735Z,9.20
2018-12-31T10:07:25.614Z,9.30
2018-12-31T10:09:29.461Z,9.30
2018-12-31T10:11:33.356Z,9.40
2018-12-31T10:13:37.261Z,9.40
2018-12-31T10:15:41.134Z,9.30
2018-12-31T10:17:45.016Z,9.30
2018-12-31T10:19:48.879Z,9.30
2018-12-31T10:21:52.766Z,9.40
2018-12-31T10:23:56.678Z,9.40
2018-12-31T10:26:00.579Z,9.40
2018-12-31T10:28:04.426Z,9.30
2018-12-31T10:30:08.553Z,9.30
2018-12-31T10:32:12.395Z,9.30
2018-12-31T10:34:16.243Z,9.40
2018-12-31T10:36:20.245Z,9.40
2018-12-31T10:38:24.165Z,9.40
2018-12-31T10:40:28.094Z,9.50
2018-12-31T10:42:32.022Z,9.50
2018-12-31T10:44:35.872Z,9.50
2018-12-31T10:46:39.807Z,9.50
2018-12-31T10:48:43.700Z,9.50
2018-12-31T10:50:47.654Z,9.50
2018-12-31T10:52:51.545Z,9.50
2018-12-31T10:54:55.395Z,9.60
2018-12-31T10:56:59.266Z,9.60
2018-12-31T10:59:03.228Z,9.60
2018-12-31T11:01:07.167Z,9.60
2018-12-31T11:03:11.200Z,9.60
2018-12-31T11:05:15.071Z,9.60
2018-12-31T11:07:18.974Z,9.60
2018-12-31T11:09:22.838Z,9.60
2018-12-31T11:11:26.783Z,9.70
2018-12-31T11:13:30.707Z,9.70
2018-12-31T11:15:34.583Z,9.70
2018-12-31T11:17:38.478Z,9.60
2018-12-31T11:19:42.338Z,9.70
2018-12-31T11:21:46.206Z,9.70
2018-12-31T11:23:50.098Z,9.70
2018-12-31T11:25:53.983Z,9.70
2018-12-31T11:27:57.854Z,9.70
2018-12-31T11:30:01.850Z,9.70
2018-12-31T11:32:05.763Z,9.70
2018-12-31T11:34:09.646Z,9.70
2018-12-31T11:36:13.505Z,9.70
2018-12-31T11:38:17.398Z,9.70
2018-12-31T11:40:21.275Z,9.70
2018-12-31T11:42:25.213Z,9.80
2018-12-31T11:44:29.068Z,9.80
2018-12-31T11:46:32.927Z,9.80
2018-12-31T11:48:36.839Z,9.70
2018-12-31T11:50:40.718Z,9.80
2018-12-31T11:52:44.669Z,9.70
2018-12-31T11:54:48.525Z,9.70
2018-12-31T11:56:53.341Z,9.70
2018-12-31T11:58:57.261Z,9.80
2018-12-31T12:01:01.150Z,9.80
2018-12-31T12:03:05.043Z,9.80
2018-12-31T12:05:09.046Z,9.80
2018-12-31T12:07:12.902Z,9.90
2018-12-31T12:09:16.788Z,9.90
2018-12-31T12:11:20.695Z,10.00
2018-12-31T12:13:24.617Z,9.90
2018-12-31T12:15:28.483Z,9.90
2018-12-31T12:17:32.820Z,9.90
2018-12-31T12:19:36.670Z,10.00
2018-12-31T12:21:40.622Z,10.00
2018-12-31T12:23:44.478Z,10.00
2018-12-31T12:25:48.338Z,10.10
2018-12-31T12:27:52.321Z,10.10
2018-12-31T12:29:56.191Z,10.00
2018-12-31T12:32:00.093Z,10.10
2018-12-31T12:34:04.015Z,10.10
2018-12-31T12:36:07.887Z,10.00
2018-12-31T12:38:11.805Z,10.10
2018-12-31T12:40:15.727Z,10.10
2018-12-31T12:42:19.583Z,10.20
2018-12-31T12:44:23.447Z,10.20
2018-12-31T12:46:27.395Z,10.10
2018-12-31T12:48:31.246Z,10.10
2018-12-31T12:50:35.118Z,10.20
2018-12-31T12:52:53.404Z,10.20
2018-12-31T12:55:05.188Z,10.20
2018-12-31T12:57:18.281Z,10.20
2018-12-31T12:59:31.857Z,10.20
2018-12-31T13:01:43.923Z,10.20
2018-12-31T13:03:51.618Z,10.20
2018-12-31T13:06:03.676Z,10.20
2018-12-31T13:08:15.640Z,10.20
2018-12-31T13:10:31.061Z,10.20
2018-12-31T13:12:43.348Z,10.20
2018-12-31T13:15:02.000Z,10.30
2018-12-31T13:17:08.810Z,10.30
2018-12-31T13:19:21.342Z,10.20
2018-12-31T13:21:34.011Z,10.20
2018-12-31T13:23:46.367Z,10.20
2018-12-31T13:26:00.527Z,10.20
2018-12-31T13:28:13.053Z,10.20
2018-12-31T13:30:26.192Z,10.20
2018-12-31T13:32:43.508Z,10.20
2018-12-31T13:35:04.364Z,10.20
2018-12-31T13:37:17.893Z,10.20
2018-12-31T13:39:38.964Z,10.20
2018-12-31T13:41:57.057Z,10.20
2018-12-31T13:44:12.777Z,10.30
2018-12-31T13:46:25.667Z,10.20
2018-12-31T13:48:44.639Z,10.20
2018-12-31T13:50:57.533Z,10.20
2018-12-31T13:53:11.275Z,10.20
2018-12-31T13:55:24.297Z,10.20
2018-12-31T13:57:37.438Z,10.20
2018-12-31T13:59:50.113Z,10.10
2018-12-31T14:02:04.758Z,10.20
2018-12-31T14:04:18.809Z,10.10
2018-12-31T14:06:32.203Z,10.10
2018-12-31T14:08:44.774Z,10.10
2018-12-31T14:10:49.367Z,10.10
2018-12-31T14:13:01.933Z,10.10
2018-12-31T14:15:16.391Z,10.10
2018-12-31T14:17:29.982Z,10.10
2018-12-31T14:19:40.598Z,10.10
2018-12-31T14:22:00.218Z,10.10
2018-12-31T14:24:12.860Z,10.00
2018-12-31T14:26:26.424Z,10.00
2018-12-31T14:28:44.965Z,10.00
2018-12-31T14:30:59.097Z,10.00
2018-12-31T14:35:49.927Z,10.00
2018-12-31T14:38:06.630Z,10.00
2018-12-31T14:40:21.452Z,10.00
2018-12-31T14:42:36.679Z,10.00
2018-12-31T14:44:48.701Z,9.90
2018-12-31T14:47:05.208Z,9.90
2018-12-31T14:49:17.829Z,9.90
2018-12-31T14:51:30.795Z,9.90
2018-12-31T14:53:43.105Z,9.90
2018-12-31T14:55:55.847Z,9.90
2018-12-31T14:58:07.584Z,9.80
2018-12-31T15:00:19.222Z,9.80
2018-12-31T15:02:27.672Z,9.80
2018-12-31T15:04:36.585Z,9.80
2018-12-31T15:06:45.249Z,9.80
2018-12-31T15:08:54.148Z,9.80
2018-12-31T15:11:00.231Z,9.80
2018-12-31T15:13:04.521Z,9.80
2018-12-31T15:15:09.043Z,9.70
2018-12-31T15:17:12.900Z,9.70
2018-12-31T15:19:16.903Z,9.70
2018-12-31T15:21:20.774Z,9.70
2018-12-31T15:23:24.671Z,9.70
2018-12-31T15:25:28.618Z,9.70
2018-12-31T15:27:32.501Z,9.70
2018-12-31T15:29:36.364Z,9.60
2018-12-31T15:31:40.440Z,9.70
2018-12-31T15:33:44.291Z,9.60
2018-12-31T15:35:48.201Z,9.60
2018-12-31T15:37:52.102Z,9.70
2018-12-31T15:39:56.030Z,9.70
2018-12-31T15:41:59.962Z,9.70
2018-12-31T15:44:04.213Z,9.70
2018-12-31T15:46:08.102Z,9.70
2018-12-31T15:48:12.011Z,9.60
2018-12-31T15:50:15.938Z,9.70
2018-12-31T15:52:19.854Z,9.70
2018-12-31T15:54:23.718Z,9.60
2018-12-31T15:56:28.021Z,9.70
2018-12-31T15:58:31.886Z,9.70
2018-12-31T16:00:35.761Z,9.60
2018-12-31T16:02:39.648Z,9.60
2018-12-31T16:04:43.554Z,9.60
2018-12-31T16:06:47.400Z,9.60
2018-12-31T16:08:51.316Z,9.60
2018-12-31T16:10:55.175Z,9.60
2018-12-31T16:12:59.078Z,9.60
2018-12-31T16:15:02.955Z,9.60
2018-12-31T16:17:06.804Z,9.60
2018-12-31T16:19:10.691Z,9.50
2018-12-31T16:21:14.551Z,9.50
2018-12-31T16:23:18.389Z,9.60
2018-12-31T16:25:22.282Z,9.60
2018-12-31T16:27:26.162Z,9.60
2018-12-31T16:29:30.080Z,9.60
2018-12-31T16:31:34.299Z,9.60
2018-12-31T16:33:38.148Z,9.60
2018-12-31T16:35:42.053Z,9.60
2018-12-31T16:37:45.962Z,9.50
2018-12-31T16:39:49.837Z,9.60
2018-12-31T16:41:53.730Z,9.50
2018-12-31T16:43:58.085Z,9.50
2018-12-31T16:46:01.903Z,9.60
2018-12-31T16:48:05.763Z,9.50
2018-12-31T16:50:09.802Z,9.50
2018-12-31T16:52:13.646Z,9.50
2018-12-31T16:54:17.594Z,9.60
2018-12-31T16:56:21.811Z,9.50
2018-12-31T16:58:25.706Z,9.50
2018-12-31T17:00:29.623Z,9.50
2018-12-31T17:02:33.511Z,9.40
2018-12-31T17:04:37.346Z,9.50
2018-12-31T17:06:41.260Z,9.40
2018-12-31T17:08:45.125Z,9.40
2018-12-31T17:10:49.032Z,9.40
2018-12-31T17:12:52.889Z,9.40
2018-12-31T17:14:56.748Z,9.40
2018-12-31T17:17:00.641Z,9.40
2018-12-31T17:19:04.823Z,9.40
2018-12-31T17:21:08.703Z,9.40
2018-12-31T17:23:12.594Z,9.50
2018-12-31T17:25:16.486Z,9.40
2018-12-31T17:27:20.415Z,9.50
2018-12-31T17:29:24.311Z,9.40
2018-12-31T17:31:28.572Z,9.40
2018-12-31T17:33:32.560Z,9.40
2018-12-31T17:35:36.421Z,9.40
2018-12-31T17:37:40.280Z,9.40
2018-12-31T17:39:44.179Z,9.40
2018-12-31T17:41:48.054Z,9.40
2018-12-31T17:43:51.915Z,9.30
2018-12-31T17:45:55.859Z,9.20
2018-12-31T17:47:59.726Z,9.20
2018-12-31T17:50:04.333Z,9.10
2018-12-31T17:52:08.269Z,9.10
2018-12-31T17:54:12.106Z,9.10
2018-12-31T17:56:15.997Z,9.00
2018-12-31T17:58:19.882Z,9.10
2018-12-31T18:00:23.934Z,9.00
2018-12-31T18:02:27.809Z,8.90
2018-12-31T18:04:31.721Z,8.90
2018-12-31T18:06:35.745Z,8.90
2018-12-31T18:08:39.639Z,9.00
2018-12-31T18:10:43.493Z,9.00
2018-12-31T18:12:47.530Z,9.00
2018-12-31T18:14:51.401Z,9.00
2018-12-31T18:16:55.320Z,9.00
2018-12-31T18:18:59.641Z,9.00
2018-12-31T18:21:03.481Z,8.90
2018-12-31T18:23:07.329Z,9.00
2018-12-31T18:25:11.238Z,9.00
2018-12-31T18:27:15.199Z,8.90
2018-12-31T18:29:19.066Z,9.00
2018-12-31T18:31:23.382Z,9.00
2018-12-31T18:33:27.258Z,8.90
2018-12-31T18:35:31.203Z,9.00
2018-12-31T18:37:41.623Z,8.90
2018-12-31T18:39:40.650Z,9.00
2018-12-31T18:41:44.550Z,9.00
2018-12-31T18:43:48.864Z,9.00
2018-12-31T18:45:52.773Z,9.00
2018-12-31T18:47:56.702Z,9.00
2018-12-31T18:50:00.599Z,9.00
2018-12-31T18:52:04.476Z,9.00
2018-12-31T18:54:08.361Z,9.10
2018-12-31T18:56:12.242Z,9.00
2018-12-31T18:58:16.111Z,8.90
2018-12-31T19:00:20.038Z,9.00
2018-12-31T19:02:23.902Z,9.00
2018-12-31T19:04:27.778Z,9.00
2018-12-31T19:06:31.841Z,9.00
2018-12-31T19:08:35.680Z,9.00
2018-12-31T19:10:39.542Z,9.00
2018-12-31T19:12:43.433Z,9.00
2018-12-31T19:14:47.294Z,9.00
2018-12-31T19:16:51.243Z,9.00
2018-12-31T19:18:55.670Z,9.00
2018-12-31T19:20:59.516Z,9.00
2018-12-31T19:23:03.405Z,9.00
2018-12-31T19:25:07.307Z,9.00
2018-12-31T19:27:11.200Z,9.00
2018-12-31T19:29:15.094Z,8.90
2018-12-31T19:31:18.972Z,9.00
2018-12-31T19:33:22.913Z,9.00
2018-12-31T19:35:26.866Z,8.90
2018-12-31T19:37:30.734Z,9.00
2018-12-31T19:39:34.622Z,9.00
2018-12-31T19:41:38.493Z,9.00
2018-12-31T19:43:42.348Z,9.00
2018-12-31T19:45:46.226Z,9.00
2018-12-31T19:47:50.114Z,9.00
2018-12-31T19:49:54.222Z,9.00
2018-12-31T19:51:58.084Z,9.00
2018-12-31T19:54:02.243Z,9.00
2018-12-31T19:56:06.195Z,9.00
2018-12-31T19:58:10.095Z,9.00
2018-12-31T20:00:13.957Z,9.00
2018-12-31T20:02:17.834Z,9.00
2018-12-31T20:04:21.757Z,9.00
2018-12-31T20:06:26.805Z,9.00
2018-12-31T20:08:30.719Z,8.90
2018-12-31T20:10:34.690Z,8.90
2018-12-31T20:12:38.603Z,8.90
2018-12-31T20:14:42.512Z,8.90
2018-12-31T20:16:46.438Z,8.90
2018-12-31T20:18:50.432Z,9.00
2018-12-31T20:20:54.285Z,8.90
2018-12-31T20:22:58.158Z,8.90
2018-12-31T20:25:02.052Z,8.90
2018-12-31T20:27:05.953Z,8.90
2018-12-31T20:29:10.031Z,8.90
2018-12-31T20:31:14.047Z,8.90
2018-12-31T20:33:17.922Z,9.00
2018-12-31T20:35:21.810Z,8.90
2018-12-31T20:37:25.810Z,8.90
2018-12-31T20:39:29.691Z,8.90
2018-12-31T20:41:33.595Z,8.90
2018-12-31T20:43:37.545Z,8.90
2018-12-31T20:45:41.447Z,8.90
2018-12-31T20:47:45.374Z,9.00
2018-12-31T20:49:49.328Z,8.90
2018-12-31T20:51:53.186Z,8.90
2018-12-31T20:53:57.105Z,8.90
2018-12-31T20:56:00.969Z,8.90
2018-12-31T20:58:04.825Z,8.90
2018-12-31T21:00:09.064Z,8.80
2018-12-31T21:02:12.957Z,8.90
2018-12-31T21:04:16.834Z,8.80
2018-12-31T21:06:20.778Z,8.80
2018-12-31T21:08:24.694Z,8.80
2018-12-31T21:10:28.560Z,8.90
2018-12-31T21:12:32.445Z,8.90
2018-12-31T21:14:36.629Z,9.00
2018-12-31T21:16:40.537Z,8.90
2018-12-31T21:18:44.423Z,8.90
2018-12-31T21:20:48.393Z,8.80
2018-12-31T21:22:52.317Z,8.90
2018-12-31T21:24:56.161Z,8.90
2018-12-31T21:27:00.179Z,8.80
2018-12-31T21:29:04.030Z,8.80
2018-12-31T21:31:07.932Z,8.80
2018-12-31T21:33:11.834Z,8.70
2018-12-31T21:35:15.691Z,8.60
2018-12-31T21:37:19.901Z,8.80
2018-12-31T21:39:23.797Z,8.60
2018-12-31T21:41:27.658Z,8.50
2018-12-31T21:43:31.566Z,8.60
2018-12-31T21:45:35.497Z,8.50
2018-12-31T21:47:39.351Z,8.50
2018-12-31T21:49:43.423Z,8.50
2018-12-31T21:51:47.319Z,8.40
2018-12-31T21:53:51.232Z,8.40
2018-12-31T21:55:55.124Z,8.40
2018-12-31T21:57:58.989Z,8.50
2018-12-31T22:00:03.486Z,8.50
2018-12-31T22:02:07.326Z,8.50
2018-12-31T22:04:11.210Z,8.50
2018-12-31T22:06:15.114Z,8.40
2018-12-31T22:08:18.982Z,8.40
2018-12-31T22:10:23.025Z,8.40
2018-12-31T22:12:27.178Z,8.50
2018-12-31T22:14:31.046Z,8.40
2018-12-31T22:16:35.081Z,8.40
2018-12-31T22:18:38.945Z,8.40
2018-12-31T22:20:42.813Z,8.50
2018-12-31T22:22:46.703Z,8.40
2018-12-31T22:24:50.606Z,8.50
2018-12-31T22:26:54.506Z,8.50
2018-12-31T22:28:58.376Z,8.50
2018-12-31T22:31:02.477Z,8.40
2018-12-31T22:33:06.775Z,8.50
2018-12-31T22:35:10.944Z,8.40
2018-12-31T22:37:15.196Z,8.40
2018-12-31T22:39:19.409Z,8.40
2018-12-31T22:41:27.617Z,8.40
2018-12-31T22:43:31.961Z,8.50
2018-12-31T22:45:35.860Z,8.50
2018-12-31T22:47:39.725Z,8.50
2018-12-31T22:49:50.717Z,8.50
2018-12-31T22:51:58.296Z,8.50
2018-12-31T22:54:06.306Z,8.40
2018-12-31T22:56:14.465Z,8.40
2018-12-31T22:58:22.438Z,8.40
2018-12-31T23:00:30.772Z,8.40
2018-12-31T23:02:38.601Z,8.50
2018-12-31T23:04:46.499Z,8.50
2018-12-31T23:06:54.865Z,8.50
2018-12-31T23:09:00.922Z,8.60
2018-12-31T23:11:08.971Z,8.50
2018-12-31T23:13:17.167Z,8.50
2018-12-31T23:15:26.628Z,8.50
2018-12-31T23:17:32.433Z,8.50
2018-12-31T23:19:41.926Z,8.40
2018-12-31T23:21:48.594Z,8.40
2018-12-31T23:23:56.488Z,8.50
2018-12-31T23:26:03.495Z,8.50
2018-12-31T23:28:07.769Z,8.40
2018-12-31T23:30:11.671Z,8.40
2018-12-31T23:32:15.570Z,8.40
2018-12-31T23:34:19.504Z,8.40
2018-12-31T23:36:23.439Z,8.40
2018-12-31T23:38:27.745Z,8.40
2018-12-31T23:40:31.585Z,8.40
2018-12-31T23:42:35.502Z,8.40
2018-12-31T23:44:39.447Z,8.40
2018-12-31T23:46:43.351Z,8.40
2018-12-31T23:48:47.250Z,8.40
2018-12-31T23:50:51.403Z,8.40
2018-12-31T23:52:55.409Z,8.40
2018-12-31T23:54:59.259Z,8.40
2018-12-31T23:57:03.170Z,8.50
2018-12-31T23:59:07.084Z,8.50
